Time;durP1;ratioP1;P1;durP2;ratioP2;P2;SDS_P1;SDS_P2;PMS_P1;PMS_P2;Temp;Humidity;BMP_temperature;BMP_pressure;BME280_temperature;BME280_humidity;BME280_pressure;Samples;Min_cycle;Max_cycle;Signal;HPM_P1;HPM_P2
2022/01/03 00:02:24;;;;;;;55.53;33.20;;;;;;;7.60;58.93;95548.84;5009582;28;20210;-62
2022/01/03 00:04:53;;;;;;;43.53;26.80;;;;;;;7.65;58.71;95535.94;5007882;28;20198;-62
2022/01/03 00:07:20;;;;;;;36.35;23.30;;;;;;;7.65;59.38;95531.50;5009933;28;20206;-62
2022/01/03 00:09:47;;;;;;;27.13;18.15;;;;;;;7.68;58.82;95536.28;5009338;28;20669;-64
2022/01/03 00:12:14;;;;;;;36.25;22.70;;;;;;;7.59;58.90;95531.63;5010069;28;20583;-65
2022/01/03 00:14:42;;;;;;;35.33;22.00;;;;;;;7.54;59.59;95523.63;5009820;28;20204;-65
2022/01/03 00:17:09;;;;;;;43.33;27.60;;;;;;;6.70;63.07;95516.59;5010622;28;20316;-60
2022/01/03 00:19:35;;;;;;;47.05;27.50;;;;;;;7.03;61.93;95509.25;5017034;28;20201;-63
2022/01/03 00:22:06;;;;;;;35.92;23.98;;;;;;;7.21;61.30;95505.03;5016917;28;20237;-63
2022/01/03 00:24:35;;;;;;;34.50;22.52;;;;;;;7.03;61.33;95511.84;5009257;28;20210;-63
2022/01/03 00:27:05;;;;;;;34.65;22.27;;;;;;;6.73;62.34;95497.94;5009560;28;20672;-64
2022/01/03 00:29:43;;;;;;;38.67;22.65;;;;;;;6.54;62.56;95496.34;5009943;28;20568;-65
2022/01/03 00:32:11;;;;;;;32.10;19.85;;;;;;;7.16;61.49;95493.44;5009842;28;20202;-62
2022/01/03 00:34:38;;;;;;;30.65;20.15;;;;;;;7.22;60.85;95489.94;5015890;28;20201;-63
2022/01/03 00:37:08;;;;;;;29.58;20.15;;;;;;;7.31;60.46;95487.03;5029504;28;20193;-63
2022/01/03 00:39:36;;;;;;;35.13;22.70;;;;;;;7.21;60.44;95486.78;5028230;28;20197;-65
2022/01/03 00:42:04;;;;;;;34.58;20.92;;;;;;;7.30;60.07;95495.91;5028734;28;20227;-64
2022/01/03 00:44:31;;;;;;;34.47;20.80;;;;;;;7.32;60.63;95499.09;5028059;28;20189;-62
2022/01/03 00:46:59;;;;;;;31.80;21.30;;;;;;;7.47;59.65;95502.06;5028530;28;20305;-64
2022/01/03 00:49:26;;;;;;;33.33;21.75;;;;;;;7.79;58.98;95500.84;5018756;28;20200;-67
2022/01/03 00:51:53;;;;;;;33.63;21.95;;;;;;;7.98;58.39;95518.00;5016758;28;20208;-65
2022/01/03 00:54:20;;;;;;;35.47;21.98;;;;;;;7.68;59.10;95509.41;5008721;28;20205;-66
2022/01/03 00:56:54;;;;;;;35.88;22.65;;;;;;;7.23;60.47;95506.38;5006759;28;20222;-64
2022/01/03 00:59:44;;;;;;;33.53;21.15;;;;;;;6.93;61.92;95495.91;5008526;28;20198;-62
2022/01/03 01:02:13;;;;;;;35.45;21.35;;;;;;;7.35;60.60;95489.00;5008506;28;20635;-64
2022/01/03 01:04:45;;;;;;;31.52;20.73;;;;;;;6.59;61.76;95493.09;5007781;28;20209;-64
2022/01/03 01:07:16;;;;;;;32.72;20.58;;;;;;;7.19;60.66;95474.75;5008267;28;20206;-63
2022/01/03 01:09:49;;;;;;;35.30;21.30;;;;;;;7.57;59.68;95465.84;5007804;28;20205;-65
2022/01/03 01:12:18;;;;;;;32.72;19.55;;;;;;;7.01;61.08;95466.16;5005109;28;20216;-62
2022/01/03 01:14:50;;;;;;;34.92;20.65;;;;;;;-140.05;100.00;61859.38;5008828;28;20221;-61
2022/01/03 01:17:19;;;;;;;34.65;21.23;;;;;;;-140.05;100.00;61859.38;5008268;28;20206;-65
2022/01/03 01:19:46;;;;;;;31.40;20.00;;;;;;;-140.05;100.00;61859.38;5007704;28;20193;-63
2022/01/03 01:22:15;;;;;;;31.00;20.83;;;;;;;-140.05;100.00;61859.38;5008472;28;20942;-63
2022/01/03 01:24:50;;;;;;;30.45;20.13;;;;;;;-140.05;100.00;61859.38;5007717;28;20197;-66
2022/01/03 01:30:05;;;;;;;37.30;21.98;;;;;;;-140.05;100.00;61859.38;5014967;28;20194;-63
2022/01/03 01:32:32;;;;;;;32.20;21.17;;;;;;;-140.05;100.00;61859.38;5007617;28;20635;-64
2022/01/03 01:35:01;;;;;;;33.88;22.33;;;;;;;-140.05;100.00;61859.38;5007844;28;20576;-65
2022/01/03 01:37:28;;;;;;;36.72;22.00;;;;;;;-140.05;100.00;61859.38;5008827;28;20623;-61
2022/01/03 01:39:57;;;;;;;33.33;21.33;;;;;;;-140.05;100.00;61859.38;5009387;28;20232;-62
2022/01/03 01:42:25;;;;;;;37.33;25.75;;;;;;;-140.05;100.00;61859.38;5007578;28;20198;-63
2022/01/03 01:44:54;;;;;;;48.72;31.10;;;;;;;-140.05;100.00;61859.38;5006487;28;20214;-63
2022/01/03 01:47:26;;;;;;;71.28;40.25;;;;;;;-140.05;100.00;61859.38;5005871;28;20666;-61
2022/01/03 01:49:56;;;;;;;86.38;47.72;;;;;;;-140.05;100.00;61859.38;5007854;28;20657;-64
2022/01/03 01:52:25;;;;;;;104.82;56.05;;;;;;;-140.05;100.00;61859.38;5007649;28;20206;-61
2022/01/03 01:55:01;;;;;;;108.95;53.75;;;;;;;-140.05;100.00;61859.38;5007893;28;20209;-67
2022/01/03 01:57:53;;;;;;;97.43;52.00;;;;;;;-140.05;100.00;61859.38;5005060;28;20198;-63
2022/01/03 02:00:25;;;;;;;102.57;50.53;;;;;;;7.13;60.80;95462.59;4999011;28;20214;-62
2022/01/03 02:03:26;;;;;;;96.13;50.92;;;;;;;6.78;60.31;95440.81;5005436;28;20209;-63
2022/01/03 02:06:07;;;;;;;97.40;52.15;;;;;;;6.65;60.45;95435.75;5009347;28;20194;-63
2022/01/03 02:08:44;;;;;;;94.50;50.20;;;;;;;6.12;62.66;95432.88;5008967;28;20205;-61
2022/01/03 02:11:33;;;;;;;92.78;48.80;;;;;;;6.14;62.38;95427.47;5007442;28;20212;-65
2022/01/03 02:14:00;;;;;;;78.03;44.00;;;;;;;5.71;63.82;95437.03;5012110;28;20209;-64
2022/01/03 02:16:28;;;;;;;73.40;41.05;;;;;;;5.95;63.15;95418.03;5011017;28;20229;-61
2022/01/03 02:18:55;;;;;;;74.47;39.97;;;;;;;5.68;64.38;95411.44;5011240;28;20812;-65
2022/01/03 02:21:22;;;;;;;72.90;38.42;;;;;;;5.98;64.16;95407.22;5011055;28;20228;-62
2022/01/03 02:23:52;;;;;;;58.60;31.67;;;;;;;5.94;63.79;95406.03;5010742;28;20716;-62
2022/01/03 02:26:19;;;;;;;57.15;31.83;;;;;;;6.38;62.24;95398.00;5024788;28;20201;-62
2022/01/03 02:28:48;;;;;;;68.45;37.05;;;;;;;6.59;61.66;95400.16;5025897;28;20304;-63
2022/01/03 02:31:17;;;;;;;63.97;36.15;;;;;;;6.73;61.12;95385.94;5010564;28;20576;-63
2022/01/03 02:33:46;;;;;;;67.55;37.60;;;;;;;6.50;60.88;95391.03;5010002;28;20202;-63
2022/01/03 02:36:14;;;;;;;66.53;36.90;;;;;;;6.28;60.86;95387.28;5010107;28;20257;-61
2022/01/03 02:38:42;;;;;;;74.35;38.55;;;;;;;6.59;60.83;95397.56;5010542;28;20268;-65
2022/01/03 02:41:09;;;;;;;69.50;40.25;;;;;;;6.69;60.08;95390.03;5009145;28;21324;-63
2022/01/03 02:43:37;;;;;;;78.53;43.13;;;;;;;6.64;60.73;95396.91;5024697;28;20292;-65
2022/01/03 02:46:04;;;;;;;81.38;43.35;;;;;;;6.74;60.03;95392.78;5009858;28;20201;-65
2022/01/03 02:48:31;;;;;;;77.88;42.75;;;;;;;6.52;60.50;95385.63;5009840;28;20307;-63
2022/01/03 02:50:58;;;;;;;76.20;44.28;;;;;;;6.33;60.76;95379.66;5011585;28;20240;-63
2022/01/03 02:53:26;;;;;;;78.72;43.40;;;;;;;5.98;62.17;95391.59;5010209;28;20217;-65
2022/01/03 02:55:54;;;;;;;75.70;42.08;;;;;;;6.09;62.05;95390.91;5010220;28;20225;-65
2022/01/03 02:58:21;;;;;;;70.13;40.42;;;;;;;5.85;63.09;95391.72;5008009;28;20206;-64
2022/01/03 03:00:49;;;;;;;60.55;35.63;;;;;;;5.78;63.09;95390.97;5010447;28;20224;-64
2022/01/03 03:03:24;;;;;;;62.65;36.58;;;;;;;5.34;64.66;95398.88;5009785;28;20229;-64
2022/01/03 03:05:54;;;;;;;58.90;34.85;;;;;;;5.92;63.50;95387.25;5007965;28;20284;-63
2022/01/03 03:08:22;;;;;;;68.78;36.60;;;;;;;5.70;63.86;95378.22;5025708;28;20216;-65
2022/01/03 03:10:49;;;;;;;59.55;31.98;;;;;;;5.73;63.83;95373.38;5009674;28;20230;-65
2022/01/03 03:13:16;;;;;;;45.75;26.50;;;;;;;5.80;63.36;95357.75;5009751;28;20238;-63
2022/01/03 03:15:44;;;;;;;44.85;26.35;;;;;;;5.98;63.41;95376.00;5009958;28;20296;-65
2022/01/03 03:18:12;;;;;;;49.88;27.67;;;;;;;6.10;62.83;95372.47;5009145;28;20189;-61
2022/01/03 03:20:39;;;;;;;45.75;27.23;;;;;;;6.34;62.52;95377.81;5011186;28;20673;-62
2022/01/03 03:23:06;;;;;;;37.60;23.45;;;;;;;6.14;63.69;95372.84;5009330;28;20745;-66
2022/01/03 03:25:35;;;;;;;43.72;25.70;;;;;;;6.29;62.57;95378.47;5009953;28;20633;-62
2022/01/03 03:28:12;;;;;;;47.20;27.20;;;;;;;6.47;61.80;95381.09;5006962;28;20303;-66
2022/01/03 03:30:43;;;;;;;49.47;28.98;;;;;;;6.50;61.77;95379.84;5009779;28;20279;-62
2022/01/03 03:33:17;;;;;;;57.72;36.45;;;;;;;6.53;61.63;95384.63;5009647;28;20231;-63
2022/01/03 03:35:50;;;;;;;60.60;36.45;;;;;;;6.70;61.36;95375.97;5009680;28;20229;-64
2022/01/03 03:38:23;;;;;;;51.50;30.13;;;;;;;5.86;63.54;95362.09;5025923;28;20698;-64
2022/01/03 03:40:51;;;;;;;45.45;27.45;;;;;;;5.88;64.32;95365.28;5011135;28;20190;-63
2022/01/03 03:43:19;;;;;;;42.65;24.52;;;;;;;6.11;63.47;95366.25;5008436;28;20201;-64
2022/01/03 03:45:49;;;;;;;37.15;23.27;;;;;;;6.11;62.78;95375.88;5006716;28;20301;-62
2022/01/03 03:48:19;;;;;;;42.92;26.73;;;;;;;6.16;62.35;95368.22;5008877;28;20299;-65
2022/01/03 03:50:48;;;;;;;40.35;26.38;;;;;;;6.23;62.03;95379.34;5009401;28;20260;-63
2022/01/03 03:53:16;;;;;;;43.60;26.15;;;;;;;6.20;61.48;95379.78;5010405;28;20202;-64
2022/01/03 03:55:44;;;;;;;49.65;27.63;;;;;;;6.32;61.20;95372.03;5009345;28;20206;-63
2022/01/03 03:58:14;;;;;;;54.63;30.05;;;;;;;6.36;61.00;95371.38;5009058;28;20201;-64
2022/01/03 04:00:41;;;;;;;59.15;33.25;;;;;;;6.45;60.48;95375.28;5009220;28;20240;-64
2022/01/03 04:03:29;;;;;;;71.53;38.60;;;;;;;6.47;60.25;95367.25;5008245;28;20206;-63
2022/01/03 04:05:56;;;;;;;70.70;40.92;;;;;;;5.74;61.94;95368.97;5006058;28;20838;-65
2022/01/03 04:08:23;;;;;;;67.82;38.45;;;;;;;5.93;61.46;95371.44;5008491;28;20198;-63
2022/01/03 04:10:51;;;;;;;62.28;36.45;;;;;;;5.86;61.72;95362.09;5009280;28;20705;-61
2022/01/03 04:13:18;;;;;;;59.50;36.03;;;;;;;5.83;61.65;95357.34;5008223;28;20220;-62
2022/01/03 04:15:46;;;;;;;67.60;35.97;;;;;;;5.64;62.50;95364.25;5008955;28;20224;-62
2022/01/03 04:18:13;;;;;;;60.05;34.65;;;;;;;5.90;61.62;95368.47;5009934;28;20190;-62
2022/01/03 04:20:39;;;;;;;63.75;36.78;;;;;;;5.93;61.43;95373.25;5010007;28;20194;-63
2022/01/03 04:23:06;;;;;;;67.80;38.90;;;;;;;6.03;61.46;95383.94;5009574;28;20207;-63
2022/01/03 04:25:33;;;;;;;62.92;36.33;;;;;;;5.90;61.26;95378.88;5009025;28;20202;-65
2022/01/03 04:28:01;;;;;;;58.20;34.08;;;;;;;5.95;60.89;95355.59;5008381;28;20615;-67
2022/01/03 04:30:28;;;;;;;57.30;33.22;;;;;;;5.81;62.32;95360.13;5007643;28;20193;-63
2022/01/03 04:32:55;;;;;;;57.97;33.15;;;;;;;6.09;61.27;95362.28;5009519;28;20272;-63
2022/01/03 04:35:22;;;;;;;49.78;27.95;;;;;;;5.67;62.36;95345.66;5009693;28;20576;-66
2022/01/03 04:37:48;;;;;;;40.35;25.45;;;;;;;5.57;63.57;95357.53;5007915;28;20244;-62
2022/01/03 04:40:15;;;;;;;38.15;25.33;;;;;;;5.42;64.62;95370.06;5008818;28;20204;-66
2022/01/03 04:42:42;;;;;;;39.35;25.67;;;;;;;5.53;64.30;95366.78;5007827;28;20328;-65
2022/01/03 04:45:10;;;;;;;38.78;24.60;;;;;;;5.57;64.43;95362.72;5008914;28;20202;-61
2022/01/03 04:47:37;;;;;;;45.00;25.65;;;;;;;5.84;63.83;95366.72;5009104;28;20268;-67
2022/01/03 04:50:05;;;;;;;60.30;37.78;;;;;;;6.06;62.44;95367.91;5010280;28;20661;-65
2022/01/03 04:52:32;;;;;;;50.17;30.75;;;;;;;6.26;62.32;95375.53;5009660;28;20202;-62
2022/01/03 04:55:01;;;;;;;41.47;25.60;;;;;;;6.22;61.61;95385.56;5011089;28;20197;-63
2022/01/03 04:57:28;;;;;;;40.22;26.13;;;;;;;6.23;61.40;95384.53;5018014;28;20276;-62
2022/01/03 04:59:55;;;;;;;46.15;26.15;;;;;;;6.14;61.16;95383.25;5009633;28;20197;-64
2022/01/03 05:02:22;;;;;;;47.28;26.88;;;;;;;5.82;61.99;95368.72;5008024;28;20193;-65
2022/01/03 05:04:49;;;;;;;41.38;26.48;;;;;;;6.04;61.45;95385.53;5009886;28;20692;-63
2022/01/03 05:07:17;;;;;;;44.38;27.85;;;;;;;5.66;62.57;95392.63;5021678;28;20579;-62
2022/01/03 05:09:44;;;;;;;46.92;27.52;;;;;;;5.94;61.33;95390.44;5008856;28;20198;-62
2022/01/03 05:12:11;;;;;;;45.88;26.02;;;;;;;5.93;61.25;95400.03;5009191;28;20202;-66
2022/01/03 05:14:40;;;;;;;41.72;25.92;;;;;;;5.94;61.30;95387.84;5007581;28;20200;-66
2022/01/03 05:17:07;;;;;;;39.22;25.67;;;;;;;5.96;60.97;95398.81;5009125;28;20226;-66
2022/01/03 05:19:35;;;;;;;39.97;24.98;;;;;;;5.77;60.98;95386.75;5006090;28;20208;-63
2022/01/03 05:22:03;;;;;;;44.03;25.50;;;;;;;5.66;61.21;95382.25;5008028;28;20289;-65
2022/01/03 05:24:34;;;;;;;47.75;27.30;;;;;;;5.73;61.48;95388.22;5007754;28;20704;-62
2022/01/03 05:27:03;;;;;;;40.78;25.25;;;;;;;5.12;63.83;95377.66;5008214;28;20205;-63
2022/01/03 05:29:31;;;;;;;36.53;22.98;;;;;;;5.51;62.93;95389.59;5006986;28;20202;-63
2022/01/03 05:31:58;;;;;;;35.80;23.42;;;;;;;5.57;61.71;95368.72;5006069;28;20637;-64
2022/01/03 05:34:26;;;;;;;43.47;27.42;;;;;;;5.74;61.43;95382.78;5008397;28;20202;-64
2022/01/03 05:36:54;;;;;;;37.88;25.65;;;;;;;5.88;60.95;95375.69;5007753;28;20214;-62
2022/01/03 05:39:21;;;;;;;38.67;24.17;;;;;;;5.73;61.27;95362.22;5007326;28;20208;-63
2022/01/03 05:41:48;;;;;;;33.65;22.35;;;;;;;5.07;63.97;95362.69;5008093;28;20240;-65
2022/01/03 05:44:16;;;;;;;34.08;20.60;;;;;;;5.59;63.16;95360.72;5007689;28;20685;-64
2022/01/03 05:46:43;;;;;;;33.97;22.50;;;;;;;5.75;61.83;95365.34;5018512;28;20224;-63
2022/01/03 05:49:11;;;;;;;37.67;22.95;;;;;;;5.60;61.88;95372.72;5014616;28;20209;-65
2022/01/03 05:51:39;;;;;;;32.17;21.25;;;;;;;5.93;61.39;95373.25;5011877;28;20202;-62
2022/01/03 05:54:06;;;;;;;35.35;22.42;;;;;;;5.69;61.67;95379.25;5010801;28;20194;-64
2022/01/03 05:56:33;;;;;;;38.60;22.75;;;;;;;5.87;60.91;95379.31;5010785;28;20332;-63
2022/01/03 05:59:00;;;;;;;37.10;22.15;;;;;;;5.96;61.42;95373.63;5011365;28;20202;-63
2022/01/03 06:01:30;;;;;;;37.55;23.73;;;;;;;5.83;60.89;95378.13;5008470;28;20287;-62
2022/01/03 06:04:01;;;;;;;42.53;24.75;;;;;;;5.84;60.38;95372.72;5010539;28;20213;-63
2022/01/03 06:06:53;;;;;;;38.33;23.48;;;;;;;5.70;61.13;95378.22;5011885;28;20317;-65
2022/01/03 06:09:23;;;;;;;41.30;25.58;;;;;;;5.54;60.74;95382.16;5010387;28;20221;-66
2022/01/03 06:11:54;;;;;;;41.63;25.42;;;;;;;5.52;60.75;95385.97;5011362;28;20221;-64
2022/01/03 06:14:22;;;;;;;52.90;33.15;;;;;;;5.29;61.44;95380.53;5010138;28;20275;-64
2022/01/03 06:16:49;;;;;;;57.63;37.60;;;;;;;5.32;61.27;95393.09;5022318;28;20217;-63
2022/01/03 06:19:17;;;;;;;61.72;38.08;;;;;;;5.20;61.53;95405.19;5013166;28;20586;-62
2022/01/03 06:21:45;;;;;;;66.97;39.85;;;;;;;5.27;61.39;95398.16;5012159;28;20194;-62
2022/01/03 06:24:18;;;;;;;60.95;38.78;;;;;;;5.17;61.87;95398.59;5010210;28;20202;-63
2022/01/03 06:26:46;;;;;;;64.30;39.40;;;;;;;5.21;62.05;95406.78;5010761;28;20206;-65
2022/01/03 06:29:14;;;;;;;69.57;42.40;;;;;;;5.32;61.70;95401.72;5011190;28;20200;-62
2022/01/03 06:31:44;;;;;;;68.65;43.20;;;;;;;5.25;61.95;95406.16;5011232;28;20206;-67
2022/01/03 06:34:12;;;;;;;84.75;49.70;;;;;;;5.30;61.86;95410.72;5008891;28;20628;-65
2022/01/03 06:36:40;;;;;;;64.45;38.88;;;;;;;4.75;63.18;95405.22;5026350;28;20229;-64
2022/01/03 06:39:09;;;;;;;61.17;40.20;;;;;;;4.76;63.73;95413.81;5011829;28;20194;-63
2022/01/03 06:41:40;;;;;;;62.50;38.15;;;;;;;4.17;65.76;95403.63;5010640;28;20683;-65
2022/01/03 06:44:07;;;;;;;66.38;37.30;;;;;;;4.31;65.89;95402.59;5009878;28;20202;-65
2022/01/03 06:46:35;;;;;;;62.85;37.40;;;;;;;4.37;66.34;95412.16;5018894;28;20203;-65
2022/01/03 06:49:05;;;;;;;54.17;34.80;;;;;;;4.61;65.63;95403.69;5015743;28;20200;-63
2022/01/03 06:51:36;;;;;;;58.80;34.65;;;;;;;4.30;66.43;95401.00;5010248;28;20209;-65
2022/01/03 06:54:14;;;;;;;51.70;29.77;;;;;;;4.60;66.04;95409.88;5009787;28;20574;-66
2022/01/03 06:56:49;;;;;;;49.30;30.45;;;;;;;4.93;65.52;95391.53;5010366;28;20794;-67
2022/01/03 06:59:16;;;;;;;49.03;29.50;;;;;;;5.18;65.01;95396.81;5009722;28;20214;-65
2022/01/03 07:01:45;;;;;;;50.95;28.30;;;;;;;5.50;63.77;95395.78;5024510;28;20213;-66
2022/01/03 07:04:13;;;;;;;49.05;29.27;;;;;;;5.72;63.21;95386.59;5009221;28;20205;-66
2022/01/03 07:06:40;;;;;;;40.55;26.80;;;;;;;5.86;63.32;95388.09;5011095;28;20194;-64
2022/01/03 07:09:07;;;;;;;39.55;26.02;;;;;;;6.14;62.93;95391.84;5010118;28;20209;-63
2022/01/03 07:11:35;;;;;;;42.40;27.90;;;;;;;6.30;62.37;95374.84;5011682;28;20204;-63
2022/01/03 07:19:43;;;;;;;41.58;25.83;;;;;;;5.83;65.02;95371.13;5008457;28;20281;-64
2022/01/03 07:22:10;;;;;;;45.13;27.67;;;;;;;6.49;63.73;95368.66;5011670;28;20198;-67
2022/01/03 07:24:39;;;;;;;44.17;26.55;;;;;;;6.72;63.25;95373.97;5010391;28;20202;-66
2022/01/03 07:27:10;;;;;;;38.95;25.25;;;;;;;7.18;62.42;95383.78;5009487;28;20205;-65
2022/01/03 07:29:37;;;;;;;44.60;28.25;;;;;;;7.40;61.79;95365.81;5008172;28;20232;-65
2022/01/03 07:32:05;;;;;;;46.22;28.85;;;;;;;7.65;61.21;95350.75;5008246;28;20212;-65
2022/01/03 07:34:32;;;;;;;51.03;30.50;;;;;;;7.58;60.60;95347.47;5014236;28;20213;-65
2022/01/03 07:37:00;;;;;;;52.13;33.15;;;;;;;7.77;60.73;95356.78;5015123;28;20217;-65
2022/01/03 07:39:30;;;;;;;50.65;34.40;;;;;;;7.65;60.04;95350.75;5010233;28;20194;-64
2022/01/03 07:42:01;;;;;;;62.45;40.75;;;;;;;7.93;59.86;95361.31;5013037;28;20194;-62
2022/01/03 07:44:34;;;;;;;67.65;44.88;;;;;;;7.75;59.57;95370.06;5009280;28;20208;-70
2022/01/03 07:47:03;;;;;;;69.38;45.55;;;;;;;7.59;59.49;95364.72;5009737;28;20746;-64
2022/01/03 07:49:30;;;;;;;83.88;52.67;;;;;;;7.76;58.63;95374.25;5009745;28;20209;-67
2022/01/03 07:51:58;;;;;;;101.13;66.47;;;;;;;7.97;59.11;95365.06;5010313;28;20293;-67
2022/01/03 07:54:25;;;;;;;104.47;65.17;;;;;;;7.68;59.57;95373.78;5008268;28;20441;-66
2022/01/03 07:56:52;;;;;;;108.77;70.13;;;;;;;7.59;60.18;95364.72;5012111;28;20482;-66
2022/01/03 07:59:19;;;;;;;110.37;73.17;;;;;;;7.85;58.60;95375.50;5014659;28;20993;-64
2022/01/03 08:01:46;;;;;;;115.47;70.50;;;;;;;7.31;58.96;95361.94;5011567;28;20539;-62
2022/01/03 08:04:14;;;;;;;123.57;74.93;;;;;;;7.75;58.57;95364.03;5007464;28;20560;-61
2022/01/03 08:06:45;;;;;;;87.28;55.25;;;;;;;7.58;58.48;95363.09;5003554;28;20449;-60
2022/01/03 08:09:12;;;;;;;78.93;47.53;;;;;;;7.29;59.67;95356.13;5004529;28;20220;-60
2022/01/03 08:11:39;;;;;;;68.65;44.33;;;;;;;7.70;59.72;95358.72;5009125;28;20225;-60
2022/01/03 08:14:06;;;;;;;61.88;39.72;;;;;;;8.26;58.75;95366.78;5010755;28;20699;-61
2022/01/03 08:16:34;;;;;;;58.67;39.47;;;;;;;8.71;58.24;95372.13;5012066;28;20201;-62
2022/01/03 08:19:01;;;;;;;55.28;37.25;;;;;;;9.34;56.62;95353.69;5008195;28;20775;-61
2022/01/03 08:21:28;;;;;;;68.30;44.30;;;;;;;9.57;56.10;95350.91;5009129;28;20190;-60
2022/01/03 08:23:55;;;;;;;57.38;40.08;;;;;;;10.04;55.59;95370.47;5009164;28;20329;-62
2022/01/03 08:26:22;;;;;;;75.97;51.73;;;;;;;10.24;55.28;95357.69;5008433;28;20210;-60
2022/01/03 08:28:50;;;;;;;52.30;35.00;;;;;;;10.20;55.36;95357.41;5009039;28;20455;-61
2022/01/03 08:31:17;;;;;;;48.37;33.67;;;;;;;10.44;54.66;95352.72;5009194;28;20469;-60
2022/01/03 08:33:44;;;;;;;49.10;32.83;;;;;;;10.02;55.27;95347.16;5008589;28;20445;-60
2022/01/03 08:36:11;;;;;;;46.53;32.60;;;;;;;10.52;54.75;95349.69;5008184;28;20527;-59
2022/01/03 08:38:38;;;;;;;44.70;30.40;;;;;;;10.62;55.33;95339.31;5009098;28;20476;-62
2022/01/03 08:41:06;;;;;;;43.33;31.17;;;;;;;10.93;53.33;95343.88;5008711;28;20457;-61
2022/01/03 08:43:33;;;;;;;39.43;28.27;;;;;;;10.71;52.79;95339.72;5008745;28;20824;-59
2022/01/03 08:46:00;;;;;;;40.27;27.40;;;;;;;11.06;52.53;95333.00;5009154;28;20535;-60
2022/01/03 08:48:28;;;;;;;36.30;24.37;;;;;;;10.31;53.73;95329.50;5008427;28;20479;-60
2022/01/03 08:50:55;;;;;;;35.30;25.57;;;;;;;10.14;54.88;95313.06;5009121;28;20444;-64
2022/01/03 08:53:26;;;;;;;37.03;25.97;;;;;;;10.06;55.23;95308.19;5008716;28;20455;-61
2022/01/03 08:55:54;;;;;;;34.20;23.93;;;;;;;10.08;55.56;95299.09;5016699;28;20918;-60
2022/01/03 08:58:23;;;;;;;36.23;23.70;;;;;;;10.38;55.81;95296.09;5027928;28;20479;-61
2022/01/03 09:00:51;;;;;;;36.07;24.23;;;;;;;11.07;54.04;95287.41;5027366;28;20452;-61
2022/01/03 09:03:18;;;;;;;185.37;131.57;;;;;;;11.81;53.21;95292.72;5028143;28;20895;-62
2022/01/03 09:05:46;;;;;;;109.80;74.27;;;;;;;12.10;52.54;95284.22;5028725;28;20444;-60
2022/01/03 09:08:13;;;;;;;31.43;23.17;;;;;;;12.46;51.18;95268.63;5027990;28;20451;-62
2022/01/03 09:10:40;;;;;;;29.80;21.17;;;;;;;12.08;50.83;95277.63;5028369;28;20455;-60
2022/01/03 09:13:07;;;;;;;28.63;21.03;;;;;;;12.63;50.27;95285.75;5027917;28;20942;-60
2022/01/03 09:15:36;;;;;;;28.57;21.27;;;;;;;13.09;50.30;95295.38;5028780;28;20451;-63
2022/01/03 09:18:07;;;;;;;44.70;30.77;;;;;;;13.47;50.22;95290.66;5027567;28;20475;-61
2022/01/03 09:20:33;;;;;;;49.13;32.93;;;;;;;13.53;49.73;95282.53;5029145;28;21080;-61
2022/01/03 09:23:08;;;;;;;62.63;40.97;;;;;;;13.07;51.03;95276.44;5032623;28;20481;-60
2022/01/03 09:30:53;;;;;;;65.47;45.80;;;;;;;14.35;47.13;95249.72;5032222;28;20497;-60
2022/01/03 09:33:21;;;;;;;66.07;45.33;;;;;;;14.50;46.90;95245.19;5031960;28;21112;-61
2022/01/03 09:35:51;;;;;;;65.77;44.90;;;;;;;14.40;46.46;95242.56;5032733;28;20472;-61
2022/01/03 09:38:18;;;;;;;68.00;44.93;;;;;;;13.57;46.49;95248.56;5030831;28;20853;-61
2022/01/03 09:40:46;;;;;;;66.40;45.27;;;;;;;13.70;46.81;95232.22;5025540;28;20437;-61
2022/01/03 09:43:17;;;;;;;59.10;41.90;;;;;;;13.88;47.52;95234.28;5012207;28;20453;-61
2022/01/03 09:45:47;;;;;;;61.33;42.30;;;;;;;13.46;48.41;95239.09;5012258;28;20447;-61
2022/01/03 09:48:15;;;;;;;62.90;40.20;;;;;;;13.35;49.02;95235.66;5010848;28;20484;-60
2022/01/03 09:50:44;;;;;;;61.67;40.30;;;;;;;13.29;49.33;95220.13;5011211;28;20449;-62
2022/01/03 09:53:12;;;;;;;58.57;41.70;;;;;;;13.37;49.41;95216.97;5012379;28;20453;-60
2022/01/03 09:55:42;;;;;;;67.20;45.20;;;;;;;13.40;48.79;95211.19;5012440;28;20448;-60
2022/01/03 09:58:10;;;;;;;59.30;40.60;;;;;;;13.64;48.83;95212.19;5011561;28;20820;-60
2022/01/03 10:00:37;;;;;;;59.50;40.13;;;;;;;13.28;49.57;95214.09;5012109;28;20547;-60
2022/01/03 10:03:05;;;;;;;54.23;36.90;;;;;;;13.52;49.04;95204.56;5011286;28;20773;-60
2022/01/03 10:05:32;;;;;;;41.23;31.73;;;;;;;13.29;48.46;95199.88;5012230;28;20967;-59
2022/01/03 10:07:59;;;;;;;45.13;31.97;;;;;;;13.19;49.06;95200.66;5010891;28;20444;-62
2022/01/03 10:10:28;;;;;;;54.50;37.57;;;;;;;13.19;49.63;95195.41;5011597;28;20543;-60
2022/01/03 10:12:55;;;;;;;66.20;47.80;;;;;;;13.39;49.00;95184.09;5011429;28;20436;-59
2022/01/03 10:15:23;;;;;;;49.67;36.00;;;;;;;12.90;49.08;95175.13;5017080;28;20444;-60
2022/01/03 10:17:51;;;;;;;46.80;34.90;;;;;;;12.45;50.32;95188.19;5030034;28;20486;-60
2022/01/03 10:20:18;;;;;;;46.50;34.10;;;;;;;12.82;50.49;95180.91;5029835;28;20452;-61
2022/01/03 10:23:11;;;;;;;43.70;30.67;;;;;;;13.01;50.32;95177.47;5017590;28;20953;-59
2022/01/03 10:25:41;;;;;;;40.50;30.27;;;;;;;13.20;50.27;95165.41;5025249;28;20440;-60
2022/01/03 10:28:09;;;;;;;39.50;28.90;;;;;;;13.41;49.57;95160.13;5019416;28;20443;-59
2022/01/03 10:30:45;;;;;;;42.63;29.67;;;;;;;13.49;49.37;95162.19;5022167;28;20547;-61
2022/01/03 10:33:15;;;;;;;40.77;28.00;;;;;;;13.75;48.03;95155.81;5010750;28;20646;-60
2022/01/03 10:35:48;;;;;;;42.30;28.77;;;;;;;13.72;48.48;95148.47;5013845;28;20444;-60
2022/01/03 10:38:36;;;;;;;39.17;26.27;;;;;;;13.79;47.82;95133.97;5021142;28;21015;-60
2022/01/03 10:41:21;;;;;;;39.57;29.07;;;;;;;13.71;47.74;95133.72;5021250;28;20470;-61
2022/01/03 10:43:50;;;;;;;41.00;29.00;;;;;;;13.97;47.84;95132.56;5016605;28;20449;-61
2022/01/03 10:46:29;;;;;;;40.60;28.07;;;;;;;14.08;47.18;95134.09;5016602;28;20523;-60
2022/01/03 10:49:13;;;;;;;42.23;29.43;;;;;;;13.98;47.79;95118.31;5017488;28;20468;-60
2022/01/03 10:51:40;;;;;;;40.60;28.50;;;;;;;14.03;47.34;95118.31;5018883;28;20514;-60
2022/01/03 10:54:09;;;;;;;43.33;27.50;;;;;;;14.18;47.03;95121.66;5015872;28;20558;-63
2022/01/03 10:56:44;;;;;;;29.70;22.27;;;;;;;13.64;47.36;95106.88;5026895;28;20436;-61
2022/01/03 10:59:15;;;;;;;35.87;25.20;;;;;;;13.81;47.03;95102.09;5025756;28;20495;-65
2022/01/03 11:01:48;;;;;;;36.03;23.80;;;;;;;14.07;47.56;95091.13;5027781;28;20949;-61
2022/01/03 11:05:11;;;;;;;32.30;22.90;;;;;;;14.07;47.50;95088.50;5025258;28;20977;-60
2022/01/03 11:13:14;;;;;;;33.33;22.60;;;;;;;13.23;47.85;95089.63;5026330;28;20447;-60
2022/01/03 11:15:56;;;;;;;34.20;22.40;;;;;;;13.65;47.51;95087.41;5026265;28;20436;-60
2022/01/03 11:18:28;;;;;;;31.60;22.77;;;;;;;13.58;47.93;95077.16;5028220;28;20517;-62
2022/01/03 11:21:11;;;;;;;38.70;22.10;;;;;;;13.75;47.03;95067.06;5027320;28;20566;-62
2022/01/03 11:23:40;;;;;;;32.50;21.37;;;;;;;14.05;47.04;95060.88;5022952;28;20905;-60
2022/01/03 11:26:10;;;;;;;32.20;22.60;;;;;;;14.13;46.49;95057.66;5018463;28;20523;-61
2022/01/03 11:28:39;;;;;;;30.87;22.67;;;;;;;14.03;46.73;95052.44;5028401;28;20440;-63
2022/01/03 11:31:09;;;;;;;28.77;21.33;;;;;;;14.33;46.62;95047.00;5020696;28;21010;-61
2022/01/03 11:33:37;;;;;;;32.30;23.10;;;;;;;14.43;47.28;95048.78;5027924;28;20440;-60
2022/01/03 11:36:25;;;;;;;37.83;21.60;;;;;;;14.69;47.49;95024.56;5022674;28;20442;-62
2022/01/03 11:38:55;;;;;;;32.60;21.90;;;;;;;14.66;47.30;95025.13;5026211;28;20478;-59
2022/01/03 11:41:23;;;;;;;53.77;38.43;;;;;;;14.94;47.37;95032.22;5026531;28;20534;-61
2022/01/03 11:43:51;;;;;;;140.67;109.67;;;;;;;15.02;45.55;95034.28;5023477;28;20451;-61
2022/01/03 11:46:18;;;;;;;39.80;23.77;;;;;;;15.12;47.38;95023.63;5023619;28;20832;-60
2022/01/03 11:48:46;;;;;;;30.93;20.90;;;;;;;15.67;46.46;95026.72;5025704;28;20530;-61
2022/01/03 11:51:14;;;;;;;31.77;19.97;;;;;;;15.79;44.86;95027.09;5025830;28;21061;-62